Terminal Aerodrome Forecast
Issued by NWS

Home | Current Version | Previous Version | Text Only | Print | Product List | Glossary On
Versions: 1 2 3 4 5 6 7 8 9 10 11 12 13 14 15 16 17 18
000
FTUS42 KFFC 310500 RRA
TAFPDK
TAF
KPDK 310543Z 3106/0106 00000KT P6SM FEW040 BKN100
     FM311000 00000KT 4SM BR SCT012 SCT250
     FM311400 23005KT P6SM SCT025 SCT250
     FM311800 24007KT P6SM SCT060 SCT150
     FM010100 00000KT P6SM FEW050 SCT250=

USA.gov is the U.S. government's official web portal to all federal, state and local government web resources and services.